sensor_id;sensor_type;location;lat;lon;timestamp;P1;durP1;ratioP1;P2;durP2;ratioP2
5458;SDS011;2752;49.992;8.422;2023-07-28T00:01:47;2.60;;;1.83;;
5458;SDS011;2752;49.992;8.422;2023-07-28T00:04:14;4.43;;;2.47;;
5458;SDS011;2752;49.992;8.422;2023-07-28T00:06:40;2.90;;;2.30;;
5458;SDS011;2752;49.992;8.422;2023-07-28T00:09:07;9.73;;;2.60;;
5458;SDS011;2752;49.992;8.422;2023-07-28T00:11:34;4.30;;;1.83;;
5458;SDS011;2752;49.992;8.422;2023-07-28T00:14:00;6.73;;;2.40;;
5458;SDS011;2752;49.992;8.422;2023-07-28T00:16:28;6.23;;;2.00;;
5458;SDS011;2752;49.992;8.422;2023-07-28T00:18:55;4.40;;;2.20;;
5458;SDS011;2752;49.992;8.422;2023-07-28T00:21:22;3.17;;;2.20;;
5458;SDS011;2752;49.992;8.422;2023-07-28T00:23:48;3.90;;;2.50;;
5458;SDS011;2752;49.992;8.422;2023-07-28T00:26:15;4.27;;;2.77;;
5458;SDS011;2752;49.992;8.422;2023-07-28T00:28:42;4.60;;;2.40;;
5458;SDS011;2752;49.992;8.422;2023-07-28T00:31:08;4.83;;;2.73;;
5458;SDS011;2752;49.992;8.422;2023-07-28T00:33:36;9.83;;;2.47;;
5458;SDS011;2752;49.992;8.422;2023-07-28T00:36:03;3.77;;;2.70;;
5458;SDS011;2752;49.992;8.422;2023-07-28T00:38:30;9.93;;;3.17;;
5458;SDS011;2752;49.992;8.422;2023-07-28T00:40:57;3.20;;;1.97;;
5458;SDS011;2752;49.992;8.422;2023-07-28T00:43:24;3.87;;;2.30;;
5458;SDS011;2752;49.992;8.422;2023-07-28T00:45:51;3.83;;;1.93;;
5458;SDS011;2752;49.992;8.422;2023-07-28T00:48:18;5.17;;;2.40;;
5458;SDS011;2752;49.992;8.422;2023-07-28T00:50:46;3.77;;;2.27;;
5458;SDS011;2752;49.992;8.422;2023-07-28T00:53:14;3.60;;;2.23;;
5458;SDS011;2752;49.992;8.422;2023-07-28T00:55:41;4.30;;;2.07;;
5458;SDS011;2752;49.992;8.422;2023-07-28T00:58:08;9.50;;;2.70;;
5458;SDS011;2752;49.992;8.422;2023-07-28T01:00:35;5.40;;;2.93;;
5458;SDS011;2752;49.992;8.422;2023-07-28T01:03:02;2.70;;;2.23;;
5458;SDS011;2752;49.992;8.422;2023-07-28T01:05:32;5.10;;;3.13;;
5458;SDS011;2752;49.992;8.422;2023-07-28T01:08:09;11.40;;;3.13;;
5458;SDS011;2752;49.992;8.422;2023-07-28T01:10:40;4.83;;;3.07;;
5458;SDS011;2752;49.992;8.422;2023-07-28T01:13:07;6.73;;;3.00;;
5458;SDS011;2752;49.992;8.422;2023-07-28T01:15:34;5.50;;;3.70;;
5458;SDS011;2752;49.992;8.422;2023-07-28T01:18:01;6.30;;;3.60;;
5458;SDS011;2752;49.992;8.422;2023-07-28T01:20:29;5.27;;;3.10;;
5458;SDS011;2752;49.992;8.422;2023-07-28T01:23:04;4.00;;;2.70;;
5458;SDS011;2752;49.992;8.422;2023-07-28T01:25:49;5.73;;;3.40;;
5458;SDS011;2752;49.992;8.422;2023-07-28T01:28:25;5.50;;;3.60;;
5458;SDS011;2752;49.992;8.422;2023-07-28T01:30:52;9.97;;;3.90;;
5458;SDS011;2752;49.992;8.422;2023-07-28T01:33:19;4.70;;;2.87;;
5458;SDS011;2752;49.992;8.422;2023-07-28T01:35:45;8.90;;;3.53;;
5458;SDS011;2752;49.992;8.422;2023-07-28T01:38:12;6.70;;;3.57;;
5458;SDS011;2752;49.992;8.422;2023-07-28T01:40:39;5.80;;;3.20;;
5458;SDS011;2752;49.992;8.422;2023-07-28T01:43:05;6.13;;;3.10;;
5458;SDS011;2752;49.992;8.422;2023-07-28T01:45:33;4.70;;;2.90;;
5458;SDS011;2752;49.992;8.422;2023-07-28T01:48:00;5.30;;;3.00;;
5458;SDS011;2752;49.992;8.422;2023-07-28T01:50:27;4.73;;;2.83;;
5458;SDS011;2752;49.992;8.422;2023-07-28T01:52:53;4.80;;;3.40;;
5458;SDS011;2752;49.992;8.422;2023-07-28T01:55:21;7.13;;;3.17;;
5458;SDS011;2752;49.992;8.422;2023-07-28T01:57:54;6.57;;;3.10;;
5458;SDS011;2752;49.992;8.422;2023-07-28T02:00:21;5.63;;;3.27;;
5458;SDS011;2752;49.992;8.422;2023-07-28T02:02:49;5.03;;;2.90;;
5458;SDS011;2752;49.992;8.422;2023-07-28T02:05:17;5.10;;;3.00;;
5458;SDS011;2752;49.992;8.422;2023-07-28T02:07:44;5.30;;;2.80;;
5458;SDS011;2752;49.992;8.422;2023-07-28T02:10:11;4.60;;;3.13;;
5458;SDS011;2752;49.992;8.422;2023-07-28T02:12:38;8.40;;;3.53;;
5458;SDS011;2752;49.992;8.422;2023-07-28T02:15:05;4.77;;;3.00;;
5458;SDS011;2752;49.992;8.422;2023-07-28T02:17:33;4.03;;;3.07;;
5458;SDS011;2752;49.992;8.422;2023-07-28T02:20:01;4.97;;;3.53;;
5458;SDS011;2752;49.992;8.422;2023-07-28T02:22:28;5.33;;;2.77;;
5458;SDS011;2752;49.992;8.422;2023-07-28T02:24:55;5.90;;;3.20;;
5458;SDS011;2752;49.992;8.422;2023-07-28T02:27:21;7.60;;;2.60;;
5458;SDS011;2752;49.992;8.422;2023-07-28T02:29:48;9.57;;;3.63;;
5458;SDS011;2752;49.992;8.422;2023-07-28T02:32:15;7.40;;;3.77;;
5458;SDS011;2752;49.992;8.422;2023-07-28T02:34:42;4.80;;;2.67;;
5458;SDS011;2752;49.992;8.422;2023-07-28T02:37:10;4.57;;;2.67;;
5458;SDS011;2752;49.992;8.422;2023-07-28T02:39:36;3.50;;;2.17;;
5458;SDS011;2752;49.992;8.422;2023-07-28T02:42:03;6.50;;;3.50;;
5458;SDS011;2752;49.992;8.422;2023-07-28T02:44:31;6.53;;;3.30;;
5458;SDS011;2752;49.992;8.422;2023-07-28T02:46:58;7.00;;;2.93;;
5458;SDS011;2752;49.992;8.422;2023-07-28T02:49:24;5.50;;;2.63;;
5458;SDS011;2752;49.992;8.422;2023-07-28T02:51:51;7.30;;;2.60;;
5458;SDS011;2752;49.992;8.422;2023-07-28T02:54:19;7.60;;;2.90;;
5458;SDS011;2752;49.992;8.422;2023-07-28T02:56:46;3.30;;;2.27;;
5458;SDS011;2752;49.992;8.422;2023-07-28T02:59:13;6.63;;;2.70;;
5458;SDS011;2752;49.992;8.422;2023-07-28T03:01:40;6.60;;;3.00;;
5458;SDS011;2752;49.992;8.422;2023-07-28T03:04:06;3.93;;;2.43;;
5458;SDS011;2752;49.992;8.422;2023-07-28T03:06:33;8.20;;;2.83;;
5458;SDS011;2752;49.992;8.422;2023-07-28T03:09:00;3.93;;;2.30;;
5458;SDS011;2752;49.992;8.422;2023-07-28T03:11:28;4.10;;;2.77;;
5458;SDS011;2752;49.992;8.422;2023-07-28T03:13:54;7.67;;;2.77;;
5458;SDS011;2752;49.992;8.422;2023-07-28T03:16:21;5.87;;;2.80;;
5458;SDS011;2752;49.992;8.422;2023-07-28T03:18:48;3.30;;;2.47;;
5458;SDS011;2752;49.992;8.422;2023-07-28T03:21:15;4.70;;;2.97;;
5458;SDS011;2752;49.992;8.422;2023-07-28T03:23:41;3.70;;;2.53;;
5458;SDS011;2752;49.992;8.422;2023-07-28T03:26:08;6.10;;;2.77;;
5458;SDS011;2752;49.992;8.422;2023-07-28T03:28:36;4.57;;;2.90;;
5458;SDS011;2752;49.992;8.422;2023-07-28T03:31:02;12.23;;;3.00;;
5458;SDS011;2752;49.992;8.422;2023-07-28T03:33:29;3.00;;;2.40;;
5458;SDS011;2752;49.992;8.422;2023-07-28T03:35:56;9.13;;;3.20;;
5458;SDS011;2752;49.992;8.422;2023-07-28T03:38:22;4.10;;;2.20;;
5458;SDS011;2752;49.992;8.422;2023-07-28T03:40:49;2.70;;;2.23;;
5458;SDS011;2752;49.992;8.422;2023-07-28T03:43:16;9.80;;;2.30;;
5458;SDS011;2752;49.992;8.422;2023-07-28T03:45:44;3.47;;;2.63;;
5458;SDS011;2752;49.992;8.422;2023-07-28T03:48:10;4.50;;;2.77;;
5458;SDS011;2752;49.992;8.422;2023-07-28T03:50:37;4.40;;;2.47;;
5458;SDS011;2752;49.992;8.422;2023-07-28T03:53:04;6.47;;;2.97;;
5458;SDS011;2752;49.992;8.422;2023-07-28T03:55:30;3.63;;;2.30;;
5458;SDS011;2752;49.992;8.422;2023-07-28T03:57:57;2.83;;;2.03;;
5458;SDS011;2752;49.992;8.422;2023-07-28T04:00:24;6.50;;;2.30;;
5458;SDS011;2752;49.992;8.422;2023-07-28T04:02:51;4.83;;;2.97;;
5458;SDS011;2752;49.992;8.422;2023-07-28T04:05:18;6.53;;;3.23;;
5458;SDS011;2752;49.992;8.422;2023-07-28T04:07:45;4.37;;;2.53;;
5458;SDS011;2752;49.992;8.422;2023-07-28T04:10:11;8.43;;;2.90;;
5458;SDS011;2752;49.992;8.422;2023-07-28T04:12:38;4.10;;;2.53;;
5458;SDS011;2752;49.992;8.422;2023-07-28T04:15:05;8.07;;;2.50;;
5458;SDS011;2752;49.992;8.422;2023-07-28T04:17:33;4.07;;;2.83;;
5458;SDS011;2752;49.992;8.422;2023-07-28T04:20:01;5.00;;;3.07;;
5458;SDS011;2752;49.992;8.422;2023-07-28T04:22:27;6.70;;;2.50;;
5458;SDS011;2752;49.992;8.422;2023-07-28T04:24:54;4.13;;;2.73;;
5458;SDS011;2752;49.992;8.422;2023-07-28T04:27:21;3.73;;;2.40;;
5458;SDS011;2752;49.992;8.422;2023-07-28T04:29:47;5.17;;;2.60;;
5458;SDS011;2752;49.992;8.422;2023-07-28T04:32:14;3.30;;;2.23;;
5458;SDS011;2752;49.992;8.422;2023-07-28T04:34:41;4.83;;;2.00;;
5458;SDS011;2752;49.992;8.422;2023-07-28T04:37:09;6.40;;;2.10;;
5458;SDS011;2752;49.992;8.422;2023-07-28T04:39:35;4.33;;;2.00;;
5458;SDS011;2752;49.992;8.422;2023-07-28T04:42:02;4.27;;;2.30;;
5458;SDS011;2752;49.992;8.422;2023-07-28T04:44:29;3.67;;;2.47;;
5458;SDS011;2752;49.992;8.422;2023-07-28T04:46:55;3.90;;;2.67;;
5458;SDS011;2752;49.992;8.422;2023-07-28T04:49:22;8.70;;;2.40;;
5458;SDS011;2752;49.992;8.422;2023-07-28T04:51:49;3.07;;;2.13;;
5458;SDS011;2752;49.992;8.422;2023-07-28T04:54:17;5.67;;;2.90;;
5458;SDS011;2752;49.992;8.422;2023-07-28T04:56:43;3.40;;;2.13;;
5458;SDS011;2752;49.992;8.422;2023-07-28T04:59:11;3.93;;;2.37;;
5458;SDS011;2752;49.992;8.422;2023-07-28T05:01:37;3.90;;;2.60;;
5458;SDS011;2752;49.992;8.422;2023-07-28T05:04:04;5.13;;;2.50;;
5458;SDS011;2752;49.992;8.422;2023-07-28T05:06:30;7.43;;;2.77;;
5458;SDS011;2752;49.992;8.422;2023-07-28T05:08:57;5.27;;;2.80;;
5458;SDS011;2752;49.992;8.422;2023-07-28T05:11:25;5.37;;;2.83;;
5458;SDS011;2752;49.992;8.422;2023-07-28T05:13:52;8.33;;;2.70;;
5458;SDS011;2752;49.992;8.422;2023-07-28T05:16:18;5.80;;;2.97;;
5458;SDS011;2752;49.992;8.422;2023-07-28T05:18:45;6.67;;;2.60;;
5458;SDS011;2752;49.992;8.422;2023-07-28T05:21:12;3.73;;;2.27;;
5458;SDS011;2752;49.992;8.422;2023-07-28T05:23:38;3.03;;;2.17;;
5458;SDS011;2752;49.992;8.422;2023-07-28T05:26:05;3.10;;;2.20;;
5458;SDS011;2752;49.992;8.422;2023-07-28T05:28:33;4.20;;;2.53;;
5458;SDS011;2752;49.992;8.422;2023-07-28T05:31:03;4.20;;;2.67;;
5458;SDS011;2752;49.992;8.422;2023-07-28T05:33:30;6.80;;;2.70;;
5458;SDS011;2752;49.992;8.422;2023-07-28T05:36:00;4.33;;;2.17;;
5458;SDS011;2752;49.992;8.422;2023-07-28T05:38:28;4.23;;;2.50;;
5458;SDS011;2752;49.992;8.422;2023-07-28T05:40:57;2.83;;;2.27;;
5458;SDS011;2752;49.992;8.422;2023-07-28T05:43:25;3.03;;;1.90;;
5458;SDS011;2752;49.992;8.422;2023-07-28T05:45:53;6.40;;;1.90;;
5458;SDS011;2752;49.992;8.422;2023-07-28T05:48:20;3.90;;;2.07;;
5458;SDS011;2752;49.992;8.422;2023-07-28T05:50:47;3.03;;;2.13;;
5458;SDS011;2752;49.992;8.422;2023-07-28T05:53:13;4.67;;;3.00;;
5458;SDS011;2752;49.992;8.422;2023-07-28T05:55:40;2.77;;;2.03;;
5458;SDS011;2752;49.992;8.422;2023-07-28T05:58:07;5.77;;;2.10;;
5458;SDS011;2752;49.992;8.422;2023-07-28T06:00:33;3.43;;;2.80;;
5458;SDS011;2752;49.992;8.422;2023-07-28T06:03:01;3.67;;;2.13;;
5458;SDS011;2752;49.992;8.422;2023-07-28T06:05:28;6.70;;;2.00;;
5458;SDS011;2752;49.992;8.422;2023-07-28T06:07:55;3.73;;;2.70;;
5458;SDS011;2752;49.992;8.422;2023-07-28T06:10:21;3.10;;;2.13;;
5458;SDS011;2752;49.992;8.422;2023-07-28T06:12:48;2.60;;;1.90;;
5458;SDS011;2752;49.992;8.422;2023-07-28T06:15:15;3.73;;;2.40;;
5458;SDS011;2752;49.992;8.422;2023-07-28T06:17:41;2.80;;;1.70;;
5458;SDS011;2752;49.992;8.422;2023-07-28T06:20:10;3.30;;;1.70;;
5458;SDS011;2752;49.992;8.422;2023-07-28T06:22:37;3.20;;;2.23;;
5458;SDS011;2752;49.992;8.422;2023-07-28T06:25:04;3.27;;;2.03;;
5458;SDS011;2752;49.992;8.422;2023-07-28T06:27:31;5.00;;;1.90;;
5458;SDS011;2752;49.992;8.422;2023-07-28T06:29:57;2.70;;;1.70;;
5458;SDS011;2752;49.992;8.422;2023-07-28T06:32:24;2.40;;;2.00;;
5458;SDS011;2752;49.992;8.422;2023-07-28T06:34:52;2.83;;;2.03;;
5458;SDS011;2752;49.992;8.422;2023-07-28T06:37:20;2.70;;;1.33;;
5458;SDS011;2752;49.992;8.422;2023-07-28T06:39:47;1.70;;;1.57;;
5458;SDS011;2752;49.992;8.422;2023-07-28T06:42:14;2.83;;;1.80;;
5458;SDS011;2752;49.992;8.422;2023-07-28T06:44:41;3.23;;;1.70;;
5458;SDS011;2752;49.992;8.422;2023-07-28T06:47:08;1.80;;;1.30;;
5458;SDS011;2752;49.992;8.422;2023-07-28T06:49:35;2.63;;;0.90;;
5458;SDS011;2752;49.992;8.422;2023-07-28T06:52:01;1.17;;;1.07;;
5458;SDS011;2752;49.992;8.422;2023-07-28T06:54:29;2.17;;;1.07;;
5458;SDS011;2752;49.992;8.422;2023-07-28T06:56:56;3.97;;;1.23;;
5458;SDS011;2752;49.992;8.422;2023-07-28T06:59:23;3.23;;;0.87;;
5458;SDS011;2752;49.992;8.422;2023-07-28T07:01:49;1.10;;;0.93;;
5458;SDS011;2752;49.992;8.422;2023-07-28T07:04:16;1.33;;;0.93;;
5458;SDS011;2752;49.992;8.422;2023-07-28T07:06:43;1.97;;;1.30;;
5458;SDS011;2752;49.992;8.422;2023-07-28T07:09:10;1.33;;;0.83;;
5458;SDS011;2752;49.992;8.422;2023-07-28T07:11:40;4.67;;;1.07;;
5458;SDS011;2752;49.992;8.422;2023-07-28T07:14:07;1.80;;;0.77;;
5458;SDS011;2752;49.992;8.422;2023-07-28T07:16:34;1.13;;;0.80;;
5458;SDS011;2752;49.992;8.422;2023-07-28T07:19:00;0.83;;;0.80;;
5458;SDS011;2752;49.992;8.422;2023-07-28T07:21:27;8.20;;;1.67;;
5458;SDS011;2752;49.992;8.422;2023-07-28T07:23:54;1.83;;;0.77;;
5458;SDS011;2752;49.992;8.422;2023-07-28T07:26:21;1.43;;;0.90;;
5458;SDS011;2752;49.992;8.422;2023-07-28T07:28:49;1.33;;;0.80;;
5458;SDS011;2752;49.992;8.422;2023-07-28T07:31:15;3.03;;;1.47;;
5458;SDS011;2752;49.992;8.422;2023-07-28T07:33:42;1.03;;;0.93;;
5458;SDS011;2752;49.992;8.422;2023-07-28T07:36:11;1.43;;;0.90;;
5458;SDS011;2752;49.992;8.422;2023-07-28T07:38:38;1.00;;;0.73;;
5458;SDS011;2752;49.992;8.422;2023-07-28T07:41:05;1.17;;;0.90;;
5458;SDS011;2752;49.992;8.422;2023-07-28T07:43:33;9.53;;;0.70;;
5458;SDS011;2752;49.992;8.422;2023-07-28T07:46:01;1.47;;;0.80;;
5458;SDS011;2752;49.992;8.422;2023-07-28T07:48:27;2.10;;;1.00;;
5458;SDS011;2752;49.992;8.422;2023-07-28T07:50:54;0.80;;;0.70;;
5458;SDS011;2752;49.992;8.422;2023-07-28T07:53:20;1.77;;;0.93;;
5458;SDS011;2752;49.992;8.422;2023-07-28T07:55:47;1.67;;;1.00;;
5458;SDS011;2752;49.992;8.422;2023-07-28T07:58:15;0.93;;;0.70;;
5458;SDS011;2752;49.992;8.422;2023-07-28T08:00:41;1.20;;;0.90;;
5458;SDS011;2752;49.992;8.422;2023-07-28T08:03:10;5.03;;;0.80;;
5458;SDS011;2752;49.992;8.422;2023-07-28T08:05:37;0.83;;;0.60;;
5458;SDS011;2752;49.992;8.422;2023-07-28T08:08:03;1.57;;;1.13;;
5458;SDS011;2752;49.992;8.422;2023-07-28T08:10:32;0.77;;;0.60;;
5458;SDS011;2752;49.992;8.422;2023-07-28T08:12:59;1.40;;;0.80;;
5458;SDS011;2752;49.992;8.422;2023-07-28T08:15:26;1.00;;;0.60;;
5458;SDS011;2752;49.992;8.422;2023-07-28T08:17:52;1.00;;;0.80;;
5458;SDS011;2752;49.992;8.422;2023-07-28T08:20:20;0.80;;;0.70;;
5458;SDS011;2752;49.992;8.422;2023-07-28T08:22:47;1.13;;;0.80;;
5458;SDS011;2752;49.992;8.422;2023-07-28T08:25:14;0.90;;;0.70;;
5458;SDS011;2752;49.992;8.422;2023-07-28T08:27:41;1.37;;;0.83;;
5458;SDS011;2752;49.992;8.422;2023-07-28T08:30:08;2.33;;;1.23;;
5458;SDS011;2752;49.992;8.422;2023-07-28T08:32:36;3.50;;;0.83;;
5458;SDS011;2752;49.992;8.422;2023-07-28T08:35:03;1.07;;;0.70;;
5458;SDS011;2752;49.992;8.422;2023-07-28T08:37:32;1.13;;;0.50;;
5458;SDS011;2752;49.992;8.422;2023-07-28T08:39:58;1.67;;;1.20;;
5458;SDS011;2752;49.992;8.422;2023-07-28T08:42:25;1.27;;;0.67;;
5458;SDS011;2752;49.992;8.422;2023-07-28T08:44:55;0.90;;;0.77;;
5458;SDS011;2752;49.992;8.422;2023-07-28T08:47:21;0.93;;;0.87;;
5458;SDS011;2752;49.992;8.422;2023-07-28T08:49:49;2.37;;;0.80;;
5458;SDS011;2752;49.992;8.422;2023-07-28T08:52:16;0.90;;;0.70;;
5458;SDS011;2752;49.992;8.422;2023-07-28T08:54:45;1.13;;;0.90;;
5458;SDS011;2752;49.992;8.422;2023-07-28T08:57:11;0.97;;;0.97;;
5458;SDS011;2752;49.992;8.422;2023-07-28T08:59:38;0.77;;;0.70;;
5458;SDS011;2752;49.992;8.422;2023-07-28T09:02:08;1.00;;;0.70;;
5458;SDS011;2752;49.992;8.422;2023-07-28T09:04:35;1.30;;;0.80;;
5458;SDS011;2752;49.992;8.422;2023-07-28T09:07:03;2.30;;;0.83;;
5458;SDS011;2752;49.992;8.422;2023-07-28T09:09:31;2.03;;;0.73;;
5458;SDS011;2752;49.992;8.422;2023-07-28T09:12:00;0.80;;;0.70;;
5458;SDS011;2752;49.992;8.422;2023-07-28T09:14:27;2.10;;;1.00;;
5458;SDS011;2752;49.992;8.422;2023-07-28T09:16:54;1.20;;;0.83;;
5458;SDS011;2752;49.992;8.422;2023-07-28T09:19:21;1.47;;;0.90;;
5458;SDS011;2752;49.992;8.422;2023-07-28T09:21:56;2.30;;;0.93;;
5458;SDS011;2752;49.992;8.422;2023-07-28T09:24:29;1.00;;;0.80;;
5458;SDS011;2752;49.992;8.422;2023-07-28T09:26:57;0.87;;;0.63;;
5458;SDS011;2752;49.992;8.422;2023-07-28T09:29:26;0.90;;;0.60;;
5458;SDS011;2752;49.992;8.422;2023-07-28T09:31:53;1.20;;;0.60;;
5458;SDS011;2752;49.992;8.422;2023-07-28T09:34:28;0.90;;;0.73;;
5458;SDS011;2752;49.992;8.422;2023-07-28T09:36:55;1.20;;;1.00;;
5458;SDS011;2752;49.992;8.422;2023-07-28T09:39:22;2.53;;;0.90;;
5458;SDS011;2752;49.992;8.422;2023-07-28T09:41:50;1.73;;;0.80;;
5458;SDS011;2752;49.992;8.422;2023-07-28T09:44:17;2.53;;;1.00;;
5458;SDS011;2752;49.992;8.422;2023-07-28T09:46:47;1.10;;;0.60;;
5458;SDS011;2752;49.992;8.422;2023-07-28T09:49:16;0.70;;;0.70;;
5458;SDS011;2752;49.992;8.422;2023-07-28T09:51:48;2.50;;;0.90;;
5458;SDS011;2752;49.992;8.422;2023-07-28T09:54:20;2.20;;;0.90;;
5458;SDS011;2752;49.992;8.422;2023-07-28T09:56:52;2.10;;;0.90;;
5458;SDS011;2752;49.992;8.422;2023-07-28T09:59:22;1.10;;;0.80;;
5458;SDS011;2752;49.992;8.422;2023-07-28T10:01:55;1.00;;;0.90;;
5458;SDS011;2752;49.992;8.422;2023-07-28T10:04:23;4.47;;;1.07;;
5458;SDS011;2752;49.992;8.422;2023-07-28T10:06:49;1.53;;;0.83;;
5458;SDS011;2752;49.992;8.422;2023-07-28T10:09:21;1.63;;;0.70;;
5458;SDS011;2752;49.992;8.422;2023-07-28T10:11:49;2.00;;;0.90;;
5458;SDS011;2752;49.992;8.422;2023-07-28T10:14:25;3.47;;;0.87;;
5458;SDS011;2752;49.992;8.422;2023-07-28T10:16:52;1.23;;;0.77;;
5458;SDS011;2752;49.992;8.422;2023-07-28T10:19:21;1.23;;;0.70;;
5458;SDS011;2752;49.992;8.422;2023-07-28T10:21:47;1.70;;;0.90;;
5458;SDS011;2752;49.992;8.422;2023-07-28T10:24:14;1.33;;;0.80;;
5458;SDS011;2752;49.992;8.422;2023-07-28T10:26:41;0.70;;;0.70;;
5458;SDS011;2752;49.992;8.422;2023-07-28T10:29:12;3.00;;;0.83;;
5458;SDS011;2752;49.992;8.422;2023-07-28T10:31:49;2.97;;;0.90;;
5458;SDS011;2752;49.992;8.422;2023-07-28T10:34:17;1.17;;;0.83;;
5458;SDS011;2752;49.992;8.422;2023-07-28T10:36:45;2.90;;;0.83;;
5458;SDS011;2752;49.992;8.422;2023-07-28T10:39:12;1.00;;;0.90;;
5458;SDS011;2752;49.992;8.422;2023-07-28T10:41:54;0.83;;;0.70;;
5458;SDS011;2752;49.992;8.422;2023-07-28T10:44:28;1.60;;;0.97;;
5458;SDS011;2752;49.992;8.422;2023-07-28T10:46:55;0.90;;;0.60;;
5458;SDS011;2752;49.992;8.422;2023-07-28T10:49:23;1.23;;;0.80;;
5458;SDS011;2752;49.992;8.422;2023-07-28T10:51:51;0.97;;;0.80;;
5458;SDS011;2752;49.992;8.422;2023-07-28T10:54:18;1.60;;;1.13;;
5458;SDS011;2752;49.992;8.422;2023-07-28T10:56:46;1.87;;;1.00;;
5458;SDS011;2752;49.992;8.422;2023-07-28T10:59:13;7.23;;;1.17;;
5458;SDS011;2752;49.992;8.422;2023-07-28T11:01:40;1.67;;;1.00;;
5458;SDS011;2752;49.992;8.422;2023-07-28T11:06:37;2.93;;;1.13;;
5458;SDS011;2752;49.992;8.422;2023-07-28T11:09:06;1.73;;;0.83;;
5458;SDS011;2752;49.992;8.422;2023-07-28T11:11:33;2.00;;;1.00;;
5458;SDS011;2752;49.992;8.422;2023-07-28T11:14:01;3.10;;;1.00;;
5458;SDS011;2752;49.992;8.422;2023-07-28T11:16:28;1.90;;;0.80;;
5458;SDS011;2752;49.992;8.422;2023-07-28T11:18:55;3.20;;;1.57;;
5458;SDS011;2752;49.992;8.422;2023-07-28T11:21:22;4.13;;;1.50;;
5458;SDS011;2752;49.992;8.422;2023-07-28T11:23:50;11.90;;;2.57;;
5458;SDS011;2752;49.992;8.422;2023-07-28T11:26:20;4.90;;;1.50;;
5458;SDS011;2752;49.992;8.422;2023-07-28T11:28:47;2.17;;;1.33;;
5458;SDS011;2752;49.992;8.422;2023-07-28T11:31:14;2.10;;;1.50;;
5458;SDS011;2752;49.992;8.422;2023-07-28T11:33:41;5.60;;;2.33;;
5458;SDS011;2752;49.992;8.422;2023-07-28T11:36:07;1.93;;;1.27;;
5458;SDS011;2752;49.992;8.422;2023-07-28T11:38:34;1.90;;;1.43;;
5458;SDS011;2752;49.992;8.422;2023-07-28T11:41:02;2.30;;;1.50;;
5458;SDS011;2752;49.992;8.422;2023-07-28T11:43:31;2.97;;;1.70;;
5458;SDS011;2752;49.992;8.422;2023-07-28T11:45:58;4.70;;;1.80;;
5458;SDS011;2752;49.992;8.422;2023-07-28T11:48:29;1.60;;;1.40;;
5458;SDS011;2752;49.992;8.422;2023-07-28T11:50:56;1.67;;;1.50;;
5458;SDS011;2752;49.992;8.422;2023-07-28T11:53:22;3.60;;;1.73;;
5458;SDS011;2752;49.992;8.422;2023-07-28T11:55:51;4.43;;;2.40;;
5458;SDS011;2752;49.992;8.422;2023-07-28T11:58:18;2.93;;;1.90;;
5458;SDS011;2752;49.992;8.422;2023-07-28T12:00:49;2.40;;;2.10;;
5458;SDS011;2752;49.992;8.422;2023-07-28T12:03:16;2.60;;;2.03;;
5458;SDS011;2752;49.992;8.422;2023-07-28T12:05:58;10.30;;;2.07;;
5458;SDS011;2752;49.992;8.422;2023-07-28T12:08:35;2.50;;;1.80;;
5458;SDS011;2752;49.992;8.422;2023-07-28T12:11:02;3.17;;;1.77;;
5458;SDS011;2752;49.992;8.422;2023-07-28T12:13:29;4.07;;;2.20;;
5458;SDS011;2752;49.992;8.422;2023-07-28T12:15:57;6.37;;;2.70;;
5458;SDS011;2752;49.992;8.422;2023-07-28T12:18:27;4.80;;;2.20;;
5458;SDS011;2752;49.992;8.422;2023-07-28T12:20:55;6.20;;;3.60;;
5458;SDS011;2752;49.992;8.422;2023-07-28T12:23:23;9.57;;;4.03;;
5458;SDS011;2752;49.992;8.422;2023-07-28T12:25:49;4.50;;;2.33;;
5458;SDS011;2752;49.992;8.422;2023-07-28T12:28:18;4.60;;;3.00;;
5458;SDS011;2752;49.992;8.422;2023-07-28T12:30:45;8.10;;;3.70;;
5458;SDS011;2752;49.992;8.422;2023-07-28T12:33:15;9.50;;;3.90;;
5458;SDS011;2752;49.992;8.422;2023-07-28T12:35:41;5.23;;;3.40;;
5458;SDS011;2752;49.992;8.422;2023-07-28T12:38:08;7.00;;;2.60;;
5458;SDS011;2752;49.992;8.422;2023-07-28T12:40:35;5.63;;;3.03;;
5458;SDS011;2752;49.992;8.422;2023-07-28T12:43:02;3.00;;;2.03;;
5458;SDS011;2752;49.992;8.422;2023-07-28T12:45:29;3.10;;;2.20;;
5458;SDS011;2752;49.992;8.422;2023-07-28T12:47:56;4.20;;;2.40;;
5458;SDS011;2752;49.992;8.422;2023-07-28T12:50:25;3.70;;;2.40;;
5458;SDS011;2752;49.992;8.422;2023-07-28T12:52:52;6.40;;;3.63;;
5458;SDS011;2752;49.992;8.422;2023-07-28T12:55:18;3.50;;;2.10;;
5458;SDS011;2752;49.992;8.422;2023-07-28T12:57:45;2.60;;;2.20;;
5458;SDS011;2752;49.992;8.422;2023-07-28T13:00:13;2.27;;;1.57;;
5458;SDS011;2752;49.992;8.422;2023-07-28T13:02:41;2.90;;;1.70;;
5458;SDS011;2752;49.992;8.422;2023-07-28T13:05:08;2.87;;;1.80;;
5458;SDS011;2752;49.992;8.422;2023-07-28T13:07:38;2.00;;;1.37;;
5458;SDS011;2752;49.992;8.422;2023-07-28T13:10:06;2.20;;;1.70;;
5458;SDS011;2752;49.992;8.422;2023-07-28T13:12:34;1.30;;;1.10;;
5458;SDS011;2752;49.992;8.422;2023-07-28T13:15:01;2.07;;;1.43;;
5458;SDS011;2752;49.992;8.422;2023-07-28T13:17:28;3.93;;;1.40;;
5458;SDS011;2752;49.992;8.422;2023-07-28T13:19:55;2.83;;;1.60;;
5458;SDS011;2752;49.992;8.422;2023-07-28T13:22:22;2.87;;;1.50;;
5458;SDS011;2752;49.992;8.422;2023-07-28T13:24:51;3.17;;;1.70;;
5458;SDS011;2752;49.992;8.422;2023-07-28T13:27:17;2.23;;;1.07;;
5458;SDS011;2752;49.992;8.422;2023-07-28T13:29:44;1.90;;;1.27;;
5458;SDS011;2752;49.992;8.422;2023-07-28T13:32:17;3.20;;;1.50;;
5458;SDS011;2752;49.992;8.422;2023-07-28T13:34:48;3.27;;;1.03;;
5458;SDS011;2752;49.992;8.422;2023-07-28T13:37:15;5.40;;;1.13;;
5458;SDS011;2752;49.992;8.422;2023-07-28T13:39:42;2.10;;;0.90;;
5458;SDS011;2752;49.992;8.422;2023-07-28T13:42:10;1.90;;;1.00;;
5458;SDS011;2752;49.992;8.422;2023-07-28T13:44:37;5.80;;;1.33;;
5458;SDS011;2752;49.992;8.422;2023-07-28T13:47:03;1.50;;;1.10;;
5458;SDS011;2752;49.992;8.422;2023-07-28T13:49:30;1.93;;;1.13;;
5458;SDS011;2752;49.992;8.422;2023-07-28T13:52:00;2.50;;;1.40;;
5458;SDS011;2752;49.992;8.422;2023-07-28T13:54:27;1.70;;;1.00;;
5458;SDS011;2752;49.992;8.422;2023-07-28T13:56:53;3.33;;;1.53;;
5458;SDS011;2752;49.992;8.422;2023-07-28T13:59:21;2.93;;;1.37;;
5458;SDS011;2752;49.992;8.422;2023-07-28T14:01:48;1.37;;;1.27;;
5458;SDS011;2752;49.992;8.422;2023-07-28T14:04:16;2.20;;;0.90;;
5458;SDS011;2752;49.992;8.422;2023-07-28T14:06:42;1.50;;;1.13;;
5458;SDS011;2752;49.992;8.422;2023-07-28T14:09:09;1.93;;;0.90;;
5458;SDS011;2752;49.992;8.422;2023-07-28T14:11:36;1.37;;;1.00;;
5458;SDS011;2752;49.992;8.422;2023-07-28T14:14:02;2.47;;;1.57;;
5458;SDS011;2752;49.992;8.422;2023-07-28T14:16:30;1.10;;;1.00;;
5458;SDS011;2752;49.992;8.422;2023-07-28T14:18:57;2.13;;;1.37;;
5458;SDS011;2752;49.992;8.422;2023-07-28T14:21:24;2.70;;;1.20;;
5458;SDS011;2752;49.992;8.422;2023-07-28T14:23:50;3.23;;;1.63;;
5458;SDS011;2752;49.992;8.422;2023-07-28T14:26:17;1.90;;;1.20;;
5458;SDS011;2752;49.992;8.422;2023-07-28T14:28:43;2.23;;;1.30;;
5458;SDS011;2752;49.992;8.422;2023-07-28T14:31:10;1.90;;;1.27;;
5458;SDS011;2752;49.992;8.422;2023-07-28T14:33:38;1.57;;;1.30;;
5458;SDS011;2752;49.992;8.422;2023-07-28T14:36:05;1.83;;;1.23;;
5458;SDS011;2752;49.992;8.422;2023-07-28T14:38:31;2.10;;;1.03;;
5458;SDS011;2752;49.992;8.422;2023-07-28T14:40:58;1.50;;;1.40;;
5458;SDS011;2752;49.992;8.422;2023-07-28T14:43:25;1.93;;;1.40;;
5458;SDS011;2752;49.992;8.422;2023-07-28T14:45:51;3.07;;;1.20;;
5458;SDS011;2752;49.992;8.422;2023-07-28T14:48:18;1.37;;;0.90;;
5458;SDS011;2752;49.992;8.422;2023-07-28T14:50:46;2.73;;;1.07;;
5458;SDS011;2752;49.992;8.422;2023-07-28T14:53:29;2.73;;;1.17;;
5458;SDS011;2752;49.992;8.422;2023-07-28T14:55:57;2.37;;;1.10;;
5458;SDS011;2752;49.992;8.422;2023-07-28T14:58:25;1.13;;;1.00;;
5458;SDS011;2752;49.992;8.422;2023-07-28T15:00:53;3.73;;;1.20;;
5458;SDS011;2752;49.992;8.422;2023-07-28T15:03:19;1.87;;;1.30;;
5458;SDS011;2752;49.992;8.422;2023-07-28T15:05:48;1.23;;;0.90;;
5458;SDS011;2752;49.992;8.422;2023-07-28T15:08:14;1.60;;;0.77;;
5458;SDS011;2752;49.992;8.422;2023-07-28T15:10:41;1.33;;;0.90;;
5458;SDS011;2752;49.992;8.422;2023-07-28T15:13:08;2.97;;;0.70;;
5458;SDS011;2752;49.992;8.422;2023-07-28T15:15:34;1.90;;;0.93;;
5458;SDS011;2752;49.992;8.422;2023-07-28T15:18:01;2.93;;;1.00;;
5458;SDS011;2752;49.992;8.422;2023-07-28T15:20:28;0.83;;;0.70;;